createdAt,value
2019-01-20T00:00:33.940Z,-5.10
2019-01-20T00:03:03.048Z,-5.10
2019-01-20T00:05:32.314Z,-5.10
2019-01-20T00:08:01.519Z,-5.10
2019-01-20T00:10:31.878Z,-5.20
2019-01-20T00:13:01.611Z,-5.20
2019-01-20T00:15:33.487Z,-5.20
2019-01-20T00:18:04.143Z,-5.20
2019-01-20T00:20:33.580Z,-5.10
2019-01-20T00:23:04.588Z,-5.10
2019-01-20T00:25:34.461Z,-5.10
2019-01-20T00:28:03.666Z,-5.10
2019-01-20T00:30:33.215Z,-5.10
2019-01-20T00:33:02.447Z,-5.10
2019-01-20T00:35:31.625Z,-5.10
2019-01-20T00:38:01.172Z,-5.10
2019-01-20T00:40:30.406Z,-5.10
2019-01-20T00:42:59.584Z,-5.20
2019-01-20T00:45:29.161Z,-5.20
2019-01-20T00:47:58.433Z,-5.30
2019-01-20T00:50:27.599Z,-5.40
2019-01-20T00:52:57.071Z,-5.50
2019-01-20T00:55:26.264Z,-5.40
2019-01-20T00:57:55.464Z,-5.40
2019-01-20T01:00:28.244Z,-5.30
2019-01-20T01:02:57.358Z,-5.30
2019-01-20T01:05:26.598Z,-5.40
2019-01-20T01:07:55.759Z,-5.50
2019-01-20T01:10:24.844Z,-5.60
2019-01-20T01:12:54.448Z,-5.50
2019-01-20T01:15:23.687Z,-5.60
2019-01-20T01:17:52.939Z,-5.50
2019-01-20T01:20:22.133Z,-5.50
2019-01-20T01:22:51.313Z,-5.60
2019-01-20T01:25:33.512Z,-5.50
2019-01-20T01:28:02.743Z,-5.50
2019-01-20T01:30:31.876Z,-5.40
2019-01-20T01:33:00.983Z,-5.30
2019-01-20T01:35:30.102Z,-5.30
2019-01-20T01:41:44.914Z,-5.40
2019-01-20T01:44:15.217Z,-5.40
2019-01-20T01:46:44.335Z,-5.40
2019-01-20T01:49:13.524Z,-5.50
2019-01-20T01:51:42.709Z,-5.40
2019-01-20T01:54:11.930Z,-5.50
2019-01-20T01:56:41.019Z,-5.40
2019-01-20T01:59:10.186Z,-5.40
2019-01-20T02:01:40.794Z,-5.50
2019-01-20T02:04:09.957Z,-5.50
2019-01-20T02:06:39.163Z,-5.60
2019-01-20T02:09:08.993Z,-5.60
2019-01-20T02:11:38.154Z,-5.80
2019-01-20T02:14:07.247Z,-5.80
2019-01-20T02:16:36.458Z,-5.80
2019-01-20T02:19:05.642Z,-5.80
2019-01-20T02:21:34.729Z,-5.90
2019-01-20T02:24:03.922Z,-6.00
2019-01-20T02:26:33.079Z,-6.00
2019-01-20T02:29:02.205Z,-6.00
2019-01-20T02:31:31.730Z,-6.00
2019-01-20T02:34:01.000Z,-6.00
2019-01-20T02:36:30.270Z,-6.00
2019-01-20T02:38:59.487Z,-6.00
2019-01-20T02:41:28.669Z,-6.00
2019-01-20T02:43:57.828Z,-6.00
2019-01-20T02:46:27.018Z,-6.10
2019-01-20T02:48:56.205Z,-6.10
2019-01-20T02:51:25.411Z,-6.20
2019-01-20T02:53:54.626Z,-6.10
2019-01-20T02:56:23.825Z,-6.10
2019-01-20T02:58:53.045Z,-6.00
2019-01-20T03:01:22.213Z,-6.00
2019-01-20T03:03:51.405Z,-6.00
2019-01-20T03:06:20.932Z,-6.10
2019-01-20T03:08:50.020Z,-6.20
2019-01-20T03:11:19.193Z,-6.30
2019-01-20T03:13:49.343Z,-6.30
2019-01-20T03:16:18.520Z,-6.30
2019-01-20T03:18:47.919Z,-6.40
2019-01-20T03:21:17.095Z,-6.40
2019-01-20T03:23:46.268Z,-6.40
2019-01-20T03:26:15.486Z,-6.50
2019-01-20T03:28:45.171Z,-6.50
2019-01-20T03:31:14.368Z,-6.50
2019-01-20T03:33:43.470Z,-6.50
2019-01-20T03:36:12.668Z,-6.60
2019-01-20T03:38:41.847Z,-6.60
2019-01-20T03:41:11.020Z,-6.60
2019-01-20T03:43:40.232Z,-6.60
2019-01-20T03:46:09.391Z,-6.40
2019-01-20T03:48:38.547Z,-6.50
2019-01-20T03:51:08.619Z,-6.40
2019-01-20T03:53:38.228Z,-6.40
2019-01-20T03:56:07.416Z,-6.40
2019-01-20T03:58:36.584Z,-6.40
2019-01-20T04:01:05.762Z,-6.30
2019-01-20T04:03:34.956Z,-6.30
2019-01-20T04:06:04.140Z,-6.20
2019-01-20T04:08:33.226Z,-6.30
2019-01-20T04:11:02.412Z,-6.30
2019-01-20T04:13:31.583Z,-6.30
2019-01-20T04:16:01.749Z,-6.30
2019-01-20T04:18:30.944Z,-6.40
2019-01-20T04:21:00.120Z,-6.40
2019-01-20T04:23:29.343Z,-6.50
2019-01-20T04:25:58.521Z,-6.60
2019-01-20T04:28:27.710Z,-6.60
2019-01-20T04:30:56.938Z,-6.60
2019-01-20T04:33:26.109Z,-6.70
2019-01-20T04:35:55.262Z,-6.70
2019-01-20T04:38:24.458Z,-6.70
2019-01-20T04:40:53.555Z,-6.70
2019-01-20T04:43:23.382Z,-6.70
2019-01-20T04:45:52.534Z,-6.60
2019-01-20T04:48:21.715Z,-6.60
2019-01-20T04:50:50.903Z,-6.70
2019-01-20T04:53:20.067Z,-6.60
2019-01-20T04:55:49.232Z,-6.60
2019-01-20T04:58:18.758Z,-6.60
2019-01-20T05:00:47.911Z,-6.70
2019-01-20T05:03:17.079Z,-6.70
2019-01-20T05:05:46.244Z,-6.70
2019-01-20T05:08:15.403Z,-6.70
2019-01-20T05:10:44.530Z,-6.70
2019-01-20T05:13:13.702Z,-6.90
2019-01-20T05:15:42.896Z,-7.00
2019-01-20T05:18:12.064Z,-7.00
2019-01-20T05:20:41.172Z,-7.00
2019-01-20T05:23:10.384Z,-6.90
2019-01-20T05:25:39.540Z,-7.00
2019-01-20T05:28:08.753Z,-7.00
2019-01-20T05:30:37.859Z,-7.00
2019-01-20T05:33:07.336Z,-7.10
2019-01-20T05:35:36.547Z,-7.20
2019-01-20T05:38:05.749Z,-7.30
2019-01-20T05:40:34.912Z,-7.20
2019-01-20T05:43:04.185Z,-7.10
2019-01-20T05:45:33.372Z,-7.00
2019-01-20T05:48:02.582Z,-7.00
2019-01-20T05:50:31.746Z,-6.90
2019-01-20T05:53:00.935Z,-6.90
2019-01-20T05:55:30.147Z,-6.80
2019-01-20T05:57:59.519Z,-6.80
2019-01-20T06:00:30.902Z,-6.90
2019-01-20T06:03:00.123Z,-6.90
2019-01-20T06:05:29.314Z,-7.00
2019-01-20T06:07:58.539Z,-6.90
2019-01-20T06:10:27.749Z,-7.00
2019-01-20T06:12:56.937Z,-7.10
2019-01-20T06:15:26.138Z,-7.10
2019-01-20T06:17:55.248Z,-7.00
2019-01-20T06:20:24.482Z,-7.10
2019-01-20T06:22:53.651Z,-7.20
2019-01-20T06:25:22.824Z,-7.40
2019-01-20T06:27:52.051Z,-7.60
2019-01-20T06:30:23.766Z,-7.70
2019-01-20T06:32:52.870Z,-7.70
2019-01-20T06:35:22.102Z,-7.60
2019-01-20T06:37:51.301Z,-7.70
2019-01-20T06:40:20.531Z,-7.70
2019-01-20T06:42:49.782Z,-7.60
2019-01-20T06:45:19.002Z,-7.40
2019-01-20T06:47:48.201Z,-7.30
2019-01-20T06:50:17.477Z,-7.30
2019-01-20T06:52:46.676Z,-7.20
2019-01-20T06:55:15.878Z,-7.30
2019-01-20T06:57:45.484Z,-7.40
2019-01-20T07:00:19.555Z,-7.50
2019-01-20T07:02:48.741Z,-7.60
2019-01-20T07:05:17.941Z,-7.50
2019-01-20T07:07:47.140Z,-7.50
2019-01-20T07:10:16.945Z,-7.40
2019-01-20T07:12:46.166Z,-7.40
2019-01-20T07:15:20.246Z,-7.40
2019-01-20T07:17:49.427Z,-7.30
2019-01-20T07:20:18.646Z,-7.30
2019-01-20T07:22:47.856Z,-7.20
2019-01-20T07:25:17.140Z,-7.00
2019-01-20T07:27:46.389Z,-6.90
2019-01-20T07:30:17.664Z,-6.80
2019-01-20T07:32:46.868Z,-6.70
2019-01-20T07:35:16.016Z,-6.70
2019-01-20T07:37:45.782Z,-6.60
2019-01-20T07:40:16.027Z,-6.50
2019-01-20T07:42:45.227Z,-6.40
2019-01-20T07:45:15.195Z,-6.30
2019-01-20T07:47:44.388Z,-6.20
2019-01-20T07:50:18.357Z,-6.20
2019-01-20T07:52:47.569Z,-6.00
2019-01-20T07:55:16.775Z,-6.00
2019-01-20T07:57:45.978Z,-5.90
2019-01-20T08:00:17.126Z,-5.80
2019-01-20T08:02:46.370Z,-5.80
2019-01-20T08:05:15.560Z,-5.70
2019-01-20T08:07:44.784Z,-5.50
2019-01-20T08:10:16.716Z,-5.30
2019-01-20T08:12:45.938Z,-5.20
2019-01-20T08:15:15.346Z,-5.20
2019-01-20T08:17:44.919Z,-5.20
2019-01-20T08:20:15.994Z,-5.00
2019-01-20T08:22:45.197Z,-4.60
2019-01-20T08:25:16.432Z,-4.10
2019-01-20T08:27:45.635Z,-3.80
2019-01-20T08:30:16.969Z,-3.60
2019-01-20T08:32:48.578Z,-3.30
2019-01-20T08:35:17.775Z,-2.80
2019-01-20T08:37:46.991Z,-2.50
2019-01-20T08:40:18.684Z,-2.20
2019-01-20T08:42:47.923Z,-1.60
2019-01-20T08:45:38.433Z,-1.40
2019-01-20T08:48:13.190Z,-1.10
2019-01-20T08:50:42.403Z,-0.50
2019-01-20T08:53:11.683Z,0.00
2019-01-20T08:55:41.388Z,0.60
2019-01-20T08:58:11.281Z,0.90
2019-01-20T09:00:40.696Z,1.00
2019-01-20T09:03:10.043Z,1.00
2019-01-20T09:05:40.703Z,1.10
2019-01-20T09:08:10.067Z,1.10
2019-01-20T09:10:39.374Z,1.20
2019-01-20T09:13:09.782Z,1.50
2019-01-20T09:15:39.100Z,1.50
2019-01-20T09:18:08.322Z,1.50
2019-01-20T09:20:37.581Z,1.40
2019-01-20T09:23:06.823Z,1.40
2019-01-20T09:25:36.656Z,1.70
2019-01-20T09:28:08.152Z,2.00
2019-01-20T09:30:37.379Z,2.40
2019-01-20T09:33:06.585Z,2.80
2019-01-20T09:35:35.856Z,3.10
2019-01-20T09:38:05.957Z,3.30
2019-01-20T09:40:35.166Z,3.50
2019-01-20T09:43:04.671Z,3.80
2019-01-20T09:45:34.819Z,4.00
2019-01-20T09:48:04.290Z,4.30
2019-01-20T09:50:33.552Z,4.60
2019-01-20T09:53:02.782Z,4.80
2019-01-20T09:55:33.635Z,4.90
2019-01-20T09:58:03.167Z,5.10
2019-01-20T10:00:32.874Z,5.30
2019-01-20T10:03:02.299Z,5.30
2019-01-20T10:05:31.543Z,5.20
2019-01-20T10:08:00.797Z,5.30
2019-01-20T10:10:29.988Z,5.30
2019-01-20T10:12:59.188Z,5.20
2019-01-20T10:15:28.786Z,5.30
2019-01-20T10:17:57.993Z,5.20
2019-01-20T10:20:31.854Z,5.40
2019-01-20T10:23:01.066Z,5.40
2019-01-20T10:25:30.689Z,5.40
2019-01-20T10:27:59.957Z,5.30
2019-01-20T10:30:31.216Z,5.10
2019-01-20T10:33:00.466Z,5.00
2019-01-20T10:35:34.033Z,4.60
2019-01-20T10:38:05.687Z,4.30
2019-01-20T10:40:36.101Z,4.20
2019-01-20T10:43:05.378Z,4.00
2019-01-20T10:45:34.641Z,3.50
2019-01-20T10:48:03.892Z,3.70
2019-01-20T10:50:33.721Z,3.80
2019-01-20T10:53:02.913Z,3.60
2019-01-20T10:55:32.610Z,3.90
2019-01-20T10:58:03.568Z,4.70
2019-01-20T11:00:36.336Z,5.50
2019-01-20T11:03:05.921Z,5.90
2019-01-20T11:05:35.158Z,6.50
2019-01-20T11:08:04.668Z,6.90
2019-01-20T11:10:34.648Z,7.50
2019-01-20T11:13:07.652Z,7.30
2019-01-20T11:15:36.860Z,7.00
2019-01-20T11:18:06.146Z,7.90
2019-01-20T11:20:36.610Z,8.60
2019-01-20T11:23:05.979Z,9.00
2019-01-20T11:25:38.164Z,9.40
2019-01-20T11:28:07.452Z,9.30
2019-01-20T11:30:36.685Z,9.40
2019-01-20T11:33:06.224Z,9.70
2019-01-20T11:35:36.866Z,9.80
2019-01-20T11:38:06.059Z,9.80
2019-01-20T11:40:35.291Z,10.20
2019-01-20T11:43:04.547Z,10.70
2019-01-20T11:45:35.816Z,10.90
2019-01-20T11:48:17.593Z,10.90
2019-01-20T11:50:48.085Z,11.00
2019-01-20T11:53:17.389Z,11.00
2019-01-20T11:55:46.620Z,11.20
2019-01-20T11:58:17.502Z,11.60
2019-01-20T12:03:55.959Z,11.70
2019-01-20T12:06:25.205Z,11.60
2019-01-20T12:08:54.477Z,11.10
2019-01-20T12:11:23.781Z,10.80
2019-01-20T12:13:53.391Z,11.00
2019-01-20T12:16:22.614Z,11.10
2019-01-20T12:18:52.060Z,11.10
2019-01-20T12:21:21.354Z,10.50
2019-01-20T12:23:51.648Z,10.00
2019-01-20T12:26:20.906Z,9.60
2019-01-20T12:28:50.164Z,9.40
2019-01-20T12:31:19.457Z,9.30
2019-01-20T12:33:48.883Z,9.10
2019-01-20T12:36:18.086Z,8.90
2019-01-20T12:38:47.342Z,9.00
2019-01-20T12:41:16.714Z,8.80
2019-01-20T12:43:46.560Z,8.80
2019-01-20T12:46:17.914Z,8.40
2019-01-20T12:48:47.145Z,8.00
2019-01-20T12:51:16.413Z,8.10
2019-01-20T12:53:46.828Z,8.10
2019-01-20T12:56:16.027Z,8.00
2019-01-20T12:58:46.749Z,7.60
2019-01-20T13:01:15.977Z,7.30
2019-01-20T13:03:45.246Z,7.40
2019-01-20T13:06:14.478Z,7.50
2019-01-20T13:08:43.704Z,7.40
2019-01-20T13:11:12.981Z,7.30
2019-01-20T13:13:42.269Z,7.00
2019-01-20T13:16:11.554Z,6.70
2019-01-20T13:18:41.224Z,6.20
2019-01-20T13:21:10.815Z,6.10
2019-01-20T13:23:40.125Z,6.00
2019-01-20T13:26:09.418Z,5.90
2019-01-20T13:28:38.674Z,5.90
2019-01-20T13:31:07.884Z,5.70
2019-01-20T13:33:37.329Z,5.70
2019-01-20T13:36:07.840Z,5.50
2019-01-20T13:38:37.088Z,5.40
2019-01-20T13:41:19.602Z,5.10
2019-01-20T13:43:49.311Z,5.00
2019-01-20T13:46:19.417Z,4.70
2019-01-20T13:48:48.851Z,4.60
2019-01-20T13:51:18.242Z,4.40
2019-01-20T13:53:47.482Z,4.20
2019-01-20T13:56:17.097Z,4.10
2019-01-20T13:58:46.419Z,3.70
2019-01-20T14:01:18.388Z,3.60
2019-01-20T14:03:47.838Z,3.30
2019-01-20T14:06:17.016Z,3.20
2019-01-20T14:08:46.252Z,3.00
2019-01-20T14:11:15.493Z,2.90
2019-01-20T14:13:47.002Z,2.80
2019-01-20T14:16:16.280Z,2.70
2019-01-20T14:18:50.257Z,2.60
2019-01-20T14:21:19.521Z,2.50
2019-01-20T14:23:49.340Z,2.50
2019-01-20T14:26:20.000Z,2.40
2019-01-20T14:28:49.260Z,2.40
2019-01-20T14:31:18.463Z,2.30
2019-01-20T14:33:47.679Z,2.30
2019-01-20T14:36:18.272Z,2.20
2019-01-20T14:38:47.450Z,2.10
2019-01-20T14:41:16.669Z,1.90
2019-01-20T14:43:45.949Z,1.80
2019-01-20T14:46:15.230Z,1.70
2019-01-20T14:48:45.768Z,1.60
2019-01-20T14:51:16.605Z,1.50
2019-01-20T14:53:46.959Z,1.40
2019-01-20T14:56:16.223Z,1.20
2019-01-20T14:58:48.183Z,1.10
2019-01-20T15:01:17.533Z,1.00
2019-01-20T15:03:46.884Z,0.80
2019-01-20T15:06:16.931Z,0.70
2019-01-20T15:08:46.184Z,0.60
2019-01-20T15:11:15.447Z,0.50
2019-01-20T15:13:44.841Z,0.40
2019-01-20T15:16:14.136Z,0.30
2019-01-20T15:18:43.449Z,0.20
2019-01-20T15:21:12.660Z,0.00
2019-01-20T15:23:41.921Z,-0.20
2019-01-20T15:26:11.503Z,-0.20
2019-01-20T15:28:41.361Z,0.00
2019-01-20T15:31:10.582Z,-0.10
2019-01-20T15:33:39.832Z,-0.20
2019-01-20T15:36:09.876Z,-0.30
2019-01-20T15:38:39.116Z,-0.30
2019-01-20T15:41:08.360Z,-0.30
2019-01-20T15:43:37.658Z,-0.40
2019-01-20T15:46:06.919Z,-0.40
2019-01-20T15:48:36.128Z,-0.50
2019-01-20T15:51:05.510Z,-0.50
2019-01-20T15:53:34.757Z,-0.60
2019-01-20T15:56:04.205Z,-0.60
2019-01-20T15:58:33.435Z,-0.60
2019-01-20T16:01:03.026Z,-0.60
2019-01-20T16:03:33.295Z,-0.70
2019-01-20T16:06:02.563Z,-0.70
2019-01-20T16:08:31.802Z,-0.90
2019-01-20T16:11:01.100Z,-0.90
2019-01-20T16:13:30.399Z,-1.00
2019-01-20T16:16:00.332Z,-1.00
2019-01-20T16:18:29.971Z,-1.10
2019-01-20T16:21:01.392Z,-1.20
2019-01-20T16:23:30.738Z,-1.10
2019-01-20T16:26:00.003Z,-1.10
2019-01-20T16:28:31.372Z,-1.20
2019-01-20T16:31:00.638Z,-1.40
2019-01-20T16:33:29.871Z,-1.50
2019-01-20T16:35:59.162Z,-1.70
2019-01-20T16:38:28.479Z,-1.80
2019-01-20T16:40:58.991Z,-1.80
2019-01-20T16:43:28.389Z,-1.80
2019-01-20T16:45:57.705Z,-2.10
2019-01-20T16:48:27.436Z,-2.10
2019-01-20T16:50:59.077Z,-2.20
2019-01-20T16:53:28.478Z,-2.20
2019-01-20T16:55:58.198Z,-2.30
2019-01-20T16:58:27.479Z,-2.40
2019-01-20T17:00:56.760Z,-2.60
2019-01-20T17:03:26.351Z,-2.70
2019-01-20T17:05:55.605Z,-2.70
2019-01-20T17:08:25.721Z,-2.90
2019-01-20T17:10:56.105Z,-2.90
2019-01-20T17:13:25.635Z,-3.00
2019-01-20T17:15:54.879Z,-3.00
2019-01-20T17:18:24.167Z,-3.00
2019-01-20T17:20:53.452Z,-3.00
2019-01-20T17:23:22.682Z,-3.10
2019-01-20T17:25:51.962Z,-3.20
2019-01-20T17:28:21.239Z,-3.30
2019-01-20T17:30:50.472Z,-3.30
2019-01-20T17:33:19.819Z,-3.40
2019-01-20T17:35:49.953Z,-3.50
2019-01-20T17:38:19.214Z,-3.50
2019-01-20T17:40:49.314Z,-3.50
2019-01-20T17:43:18.569Z,-3.60
2019-01-20T17:45:50.038Z,-3.80
2019-01-20T17:48:20.057Z,-3.90
2019-01-20T17:50:49.954Z,-3.90
2019-01-20T17:53:19.230Z,-3.80
2019-01-20T17:55:48.559Z,-3.70
2019-01-20T17:58:18.514Z,-3.70
2019-01-20T18:00:50.977Z,-3.70
2019-01-20T18:03:20.251Z,-3.60
2019-01-20T18:05:49.849Z,-3.50
2019-01-20T18:08:19.585Z,-3.70
2019-01-20T18:10:48.917Z,-3.70
2019-01-20T18:13:18.366Z,-3.70
2019-01-20T18:15:54.068Z,-3.80
2019-01-20T18:18:18.710Z,-3.80
2019-01-20T18:20:48.003Z,-3.90
2019-01-20T18:23:17.884Z,-4.00
2019-01-20T18:25:47.697Z,-3.90
2019-01-20T18:28:17.080Z,-3.80
2019-01-20T18:30:46.699Z,-3.90
2019-01-20T18:33:16.211Z,-3.80
2019-01-20T18:35:45.756Z,-3.80
2019-01-20T18:38:15.065Z,-3.80
2019-01-20T18:40:44.316Z,-3.80
2019-01-20T18:43:13.521Z,-3.90
2019-01-20T18:45:43.142Z,-4.10
2019-01-20T18:48:12.433Z,-4.20
2019-01-20T18:50:41.670Z,-4.30
2019-01-20T18:53:10.906Z,-4.30
2019-01-20T18:55:40.108Z,-4.30
2019-01-20T18:58:09.379Z,-4.40
2019-01-20T19:00:44.463Z,-4.40
2019-01-20T19:03:13.721Z,-4.30
2019-01-20T19:05:42.995Z,-4.40
2019-01-20T19:08:12.416Z,-4.50
2019-01-20T19:10:41.687Z,-4.60
2019-01-20T19:13:12.765Z,-4.70
2019-01-20T19:15:42.229Z,-4.90
2019-01-20T19:18:18.711Z,-4.90
2019-01-20T19:20:43.146Z,-4.90
2019-01-20T19:23:13.766Z,-4.90
2019-01-20T19:25:43.100Z,-4.90
2019-01-20T19:28:12.633Z,-4.80
2019-01-20T19:30:44.417Z,-4.80
2019-01-20T19:33:13.793Z,-4.90
2019-01-20T19:35:43.005Z,-4.80
2019-01-20T19:38:12.264Z,-4.70
2019-01-20T19:40:41.496Z,-4.70
2019-01-20T19:43:10.809Z,-4.70
2019-01-20T19:45:40.463Z,-4.70
2019-01-20T19:48:15.691Z,-4.60
2019-01-20T19:50:44.141Z,-4.70
2019-01-20T19:53:13.440Z,-4.60
2019-01-20T19:55:42.814Z,-4.70
2019-01-20T19:58:12.377Z,-4.70
2019-01-20T20:00:41.584Z,-4.60
2019-01-20T20:03:11.828Z,-4.40
2019-01-20T20:05:42.356Z,-4.30
2019-01-20T20:08:11.647Z,-4.20
2019-01-20T20:10:40.887Z,-4.20
2019-01-20T20:13:10.089Z,-4.40
2019-01-20T20:15:39.436Z,-4.50
2019-01-20T20:18:08.686Z,-4.50
2019-01-20T20:20:37.940Z,-4.50
2019-01-20T20:23:07.187Z,-4.60
2019-01-20T20:25:36.471Z,-4.60
2019-01-20T20:28:05.966Z,-4.60
2019-01-20T20:30:37.021Z,-4.60
2019-01-20T20:33:06.769Z,-4.60
2019-01-20T20:35:36.078Z,-4.50
2019-01-20T20:38:05.357Z,-4.40
2019-01-20T20:40:34.675Z,-4.40
2019-01-20T20:43:03.909Z,-4.20
2019-01-20T20:45:33.754Z,-4.10
2019-01-20T20:48:03.031Z,-4.00
2019-01-20T20:50:32.350Z,-3.90
2019-01-20T20:53:01.617Z,-3.80
2019-01-20T20:55:31.188Z,-3.70
2019-01-20T20:58:00.591Z,-3.70
2019-01-20T21:00:36.205Z,-3.60
2019-01-20T21:03:09.508Z,-3.60
2019-01-20T21:05:38.908Z,-3.50
2019-01-20T21:08:13.484Z,-3.40
2019-01-20T21:10:43.606Z,-3.30
2019-01-20T21:13:14.884Z,-3.30
2019-01-20T21:15:44.244Z,-3.30
2019-01-20T21:18:13.603Z,-3.20
2019-01-20T21:20:43.322Z,-3.20
2019-01-20T21:23:12.762Z,-3.10
2019-01-20T21:25:42.095Z,-3.10
2019-01-20T21:28:11.461Z,-3.10
2019-01-20T21:30:41.861Z,-3.10
2019-01-20T21:33:11.086Z,-3.00
2019-01-20T21:35:40.331Z,-3.00
2019-01-20T21:38:09.533Z,-2.90
2019-01-20T21:40:39.259Z,-2.90
2019-01-20T21:43:08.568Z,-2.90
2019-01-20T21:45:38.210Z,-2.80
2019-01-20T21:48:07.539Z,-2.90
2019-01-20T21:50:36.739Z,-2.80
2019-01-20T21:57:07.180Z,-2.80
2019-01-20T21:59:36.520Z,-2.70
2019-01-20T22:02:05.696Z,-2.80
2019-01-20T22:04:35.670Z,-2.80
2019-01-20T22:07:04.902Z,-2.90
2019-01-20T22:09:34.084Z,-2.80
2019-01-20T22:12:03.297Z,-2.80
2019-01-20T22:14:33.143Z,-2.90
2019-01-20T22:17:02.315Z,-2.80
2019-01-20T22:19:35.790Z,-2.80
2019-01-20T22:22:08.490Z,-2.80
2019-01-20T22:24:37.724Z,-2.70
2019-01-20T22:27:06.939Z,-2.60
2019-01-20T22:29:37.127Z,-2.60
2019-01-20T22:32:06.894Z,-2.60
2019-01-20T22:34:36.071Z,-2.50
2019-01-20T22:37:08.850Z,-2.60
2019-01-20T22:39:38.031Z,-2.60
2019-01-20T22:42:12.261Z,-2.60
2019-01-20T22:44:41.404Z,-2.70
2019-01-20T22:47:10.618Z,-2.70
2019-01-20T22:49:42.886Z,-2.80
2019-01-20T22:52:12.045Z,-2.80
2019-01-20T22:54:41.269Z,-2.80
2019-01-20T22:57:10.492Z,-2.80
2019-01-20T22:59:39.665Z,-2.70
2019-01-20T23:02:08.833Z,-2.70
2019-01-20T23:04:38.465Z,-2.60
2019-01-20T23:07:07.707Z,-2.60
2019-01-20T23:09:37.002Z,-2.60
2019-01-20T23:12:06.170Z,-2.50
2019-01-20T23:14:35.346Z,-2.50
2019-01-20T23:17:07.913Z,-2.50
2019-01-20T23:19:35.366Z,-2.50
2019-01-20T23:22:04.531Z,-2.60
2019-01-20T23:24:34.019Z,-2.60
2019-01-20T23:27:03.124Z,-2.60
2019-01-20T23:29:32.256Z,-2.60
2019-01-20T23:32:01.447Z,-2.60
2019-01-20T23:34:30.613Z,-2.60
2019-01-20T23:36:59.729Z,-2.50
2019-01-20T23:39:28.896Z,-2.50
2019-01-20T23:41:58.076Z,-2.50
2019-01-20T23:44:28.788Z,-2.60
2019-01-20T23:46:58.544Z,-2.50
2019-01-20T23:49:27.724Z,-2.50
2019-01-20T23:51:56.992Z,-2.50
2019-01-20T23:54:26.213Z,-2.50
2019-01-20T23:56:55.366Z,-2.40
2019-01-20T23:59:24.543Z,-2.50
